Terminal Aerodrome Forecast
Issued by NWS

Home | Current Version | Previous Version | Text Only | Print | Product List | Glossary On
Versions: 1 2 3 4 5 6 7 8 9 10 11 12 13 14 15 16 17 18 19 20
000
FTUS43 KDVN 170100 AAA
TAFCID
TAF AMD
KCID 170102Z 1701/1724 30015KT P6SM OVC014
      TEMPO 1701/1704 -SHSN
     FM170400 31013KT P6SM OVC016
     FM170800 31010KT P6SM BKN020
     FM171700 31010KT P6SM SCT025=

USA.gov is the U.S. government's official web portal to all federal, state and local government web resources and services.